Tropical Cyclones
[Index]
Main Index Home Page Stock Weather Photos Extreme Storms Discussion Storm News and Storm Chasing Reports Tropical Cyclones / Hurricanes / Typhoons Weather Data and Links Wild Fires / Bushfires Weather Observation Techniques Weather Picture Catalogue Tornado Pictures and Reports Stock Video Footage and DVDs for sale
Season 1995-1996 Tropical Cyclone DOLORESSE Track Map
Season 1995-1996 Summaries: [BoM-AU] [JTWC-AU] [JTWC-SIO] [JTWC-SPAC] [JTWC-SH]
<<- Previous TC | JTWC 1995-1996 Season | Next TC ->>

click for intensity scale information  Lat/long Grid: Show Hide

 Date Labels: Show Hide

Joint Typhoon Warning Centre Cyclone Data

Name: DOLORESSE

11 Feb 1996 18:00 UTC to 19 Feb 1996 12:00 UTC

    date/time    lat    long     hPa   cat  kts
1996-02-11 18    7.3    53.0                  20          
1996-02-12 00    7.2    52.6                  20          
1996-02-12 06    7.1    52.3                  20          
1996-02-12 12    7.0    52.0                  20          
1996-02-12 18    7.0    51.7                  25          
1996-02-13 00    7.0    51.3                  25          
1996-02-13 06    7.1    51.0                  25          
1996-02-13 12    7.4    50.7                  25          
1996-02-13 18    7.9    50.1                  25          
1996-02-14 00    8.4    49.3                  30          
1996-02-14 06    8.9    48.4                  30          
1996-02-14 12    9.1    47.3                  30          
1996-02-14 18    9.2    46.1                  30          
1996-02-15 00    9.4    45.1                  35          
1996-02-15 06    9.8    44.3                  35          
1996-02-15 12   10.0    43.9            1     40          
1996-02-15 18   10.1    43.5            1     45          
1996-02-16 00   10.1    43.1            1     45          
1996-02-16 06   10.1    42.7            1     50          
1996-02-16 12   10.2    42.4            2     55          
1996-02-16 18   10.4    42.3            2     65          
1996-02-17 00   10.5    42.3            2     70          
1996-02-17 06   10.7    42.4            3     75          
1996-02-17 12   11.1    42.5            3     75          
1996-02-17 18   11.6    42.7            3     75          
1996-02-18 00   12.4    43.0            3     75          
1996-02-18 06   13.3    43.3            3     75          
1996-02-18 12   14.3    43.7            3     75          
1996-02-18 18   15.1    44.3            2     60          
1996-02-19 00   16.0    45.0            1     45          
1996-02-19 06   17.0    45.3                  35          
1996-02-19 12   18.0    45.5                  30          
Winds are 1-min average.

Tropical cyclone tracks developed by Michael Bath using data from the Joint Typhoon Warning Centre Best Tracks and Google Maps.


[Australian Severe Weather index] [Copyright Notice] [Email Contacts] [Search This Site] [Privacy Policy]
Document: tropical_cyclone_doloresse.htm Updated: 18 September 2016